Terminal Aerodrome Forecast
Issued by NWS Cleveland, OH

Home | Current Version | Previous Version | Text Only | Print | Product List | Glossary Off
Versions: 1 2 3 4 5 6 7 8 9 10 11 12 13 14

000
FTUS41 KCLE 141720
TAFERI
TAF
KERI 141720Z 1418/1518 36006KT P6SM BKN250
     FM150200 17003KT P6SM BKN250
     FM151400 24012KT P6SM SCT040 BKN120=

USA.gov is the U.S. government's official web portal to all federal, state and local government web resources and services.